createdAt,value
2023-08-20T00:01:13.458Z,18.13
2023-08-20T00:04:15.855Z,18.05
2023-08-20T00:07:19.438Z,18.00
2023-08-20T00:10:21.183Z,18.00
2023-08-20T00:13:22.766Z,17.96
2023-08-20T00:16:24.562Z,17.91
2023-08-20T00:19:26.392Z,17.89
2023-08-20T00:22:28.178Z,17.82
2023-08-20T00:25:30.039Z,17.76
2023-08-20T00:28:31.730Z,17.70
2023-08-20T00:31:33.358Z,17.68
2023-08-20T00:34:35.225Z,17.68
2023-08-20T00:37:37.107Z,17.69
2023-08-20T00:40:39.055Z,17.65
2023-08-20T00:43:40.597Z,17.64
2023-08-20T00:46:42.380Z,17.61
2023-08-20T00:49:43.985Z,17.57
2023-08-20T00:52:46.685Z,17.53
2023-08-20T00:55:48.727Z,17.54
2023-08-20T00:58:50.948Z,17.54
2023-08-20T01:01:52.571Z,17.52
2023-08-20T01:04:54.191Z,17.50
2023-08-20T01:08:14.174Z,17.49
2023-08-20T01:11:28.042Z,17.46
2023-08-20T01:14:29.664Z,17.46
2023-08-20T01:17:32.146Z,17.42
2023-08-20T01:20:40.392Z,17.36
2023-08-20T01:24:00.665Z,17.31
2023-08-20T01:27:20.770Z,17.32
2023-08-20T01:30:22.745Z,17.29
2023-08-20T01:33:26.236Z,17.22
2023-08-20T01:36:27.822Z,17.20
2023-08-20T01:39:29.396Z,17.21
2023-08-20T01:42:30.887Z,17.19
2023-08-20T01:45:32.405Z,17.11
2023-08-20T01:48:33.982Z,17.11
2023-08-20T01:51:37.521Z,17.11
2023-08-20T01:54:39.053Z,17.12
2023-08-20T01:57:40.584Z,17.07
2023-08-20T02:00:42.158Z,16.99
2023-08-20T02:03:43.721Z,16.96
2023-08-20T02:06:45.231Z,16.94
2023-08-20T02:09:49.651Z,16.92
2023-08-20T02:12:51.237Z,16.88
2023-08-20T02:16:03.485Z,16.88
2023-08-20T02:19:06.777Z,16.89
2023-08-20T02:22:08.375Z,16.87
2023-08-20T02:25:09.932Z,16.86
2023-08-20T02:28:11.536Z,16.87
2023-08-20T02:31:14.152Z,16.89
2023-08-20T02:34:15.739Z,16.85
2023-08-20T02:37:17.295Z,16.85
2023-08-20T02:40:20.069Z,16.90
2023-08-20T02:43:21.610Z,16.96
2023-08-20T02:46:23.171Z,16.97
2023-08-20T02:49:24.757Z,16.98
2023-08-20T02:52:26.243Z,17.01
2023-08-20T02:55:27.812Z,17.01
2023-08-20T02:58:29.369Z,16.99
2023-08-20T03:01:31.690Z,16.97
2023-08-20T03:04:33.362Z,16.95
2023-08-20T03:07:35.188Z,16.93
2023-08-20T03:10:37.008Z,16.91
2023-08-20T03:13:38.638Z,16.87
2023-08-20T03:16:40.215Z,16.85
2023-08-20T03:19:58.663Z,16.83
2023-08-20T03:23:00.259Z,16.78
2023-08-20T03:26:01.826Z,16.74
2023-08-20T03:29:04.351Z,16.68
2023-08-20T03:32:06.108Z,16.65
2023-08-20T03:35:07.987Z,16.66
2023-08-20T03:38:09.718Z,16.65
2023-08-20T03:41:11.914Z,16.67
2023-08-20T03:44:13.688Z,16.68
2023-08-20T03:47:16.792Z,16.65
2023-08-20T03:50:18.374Z,16.65
2023-08-20T03:53:20.432Z,16.66
2023-08-20T03:56:21.956Z,16.67
2023-08-20T03:59:23.504Z,16.70
2023-08-20T04:02:25.071Z,16.75
2023-08-20T04:05:26.652Z,16.81
2023-08-20T04:08:28.392Z,16.86
2023-08-20T04:11:30.585Z,16.94
2023-08-20T04:14:32.215Z,17.04
2023-08-20T04:17:34.001Z,17.12
2023-08-20T04:20:35.985Z,17.17
2023-08-20T04:23:38.334Z,17.20
2023-08-20T04:26:39.866Z,17.27
2023-08-20T04:29:41.454Z,17.31
2023-08-20T04:32:43.115Z,17.36
2023-08-20T04:35:44.693Z,17.41
2023-08-20T04:38:46.239Z,17.48
2023-08-20T04:41:48.239Z,17.58
2023-08-20T04:44:53.016Z,17.63
2023-08-20T04:47:54.964Z,17.68
2023-08-20T04:50:56.594Z,17.82
2023-08-20T04:53:58.125Z,17.95
2023-08-20T04:56:59.679Z,18.02
2023-08-20T05:00:02.138Z,18.07
2023-08-20T05:03:18.996Z,18.16
2023-08-20T05:06:20.852Z,18.17
2023-08-20T05:09:23.068Z,18.21
2023-08-20T05:12:24.773Z,18.22
2023-08-20T05:15:26.310Z,18.20
2023-08-20T05:18:28.106Z,18.16
2023-08-20T05:21:29.962Z,18.14
2023-08-20T05:24:32.150Z,18.15
2023-08-20T05:27:35.121Z,18.17
2023-08-20T05:30:38.826Z,18.18
2023-08-20T05:33:40.422Z,18.19
2023-08-20T05:36:43.334Z,18.20
2023-08-20T05:39:45.685Z,18.19
2023-08-20T05:42:50.563Z,18.18
2023-08-20T05:45:53.840Z,18.20
2023-08-20T05:48:57.773Z,18.34
2023-08-20T05:52:00.740Z,18.49
2023-08-20T05:55:04.273Z,18.91
2023-08-20T05:58:06.053Z,19.35
2023-08-20T06:01:08.546Z,19.94
2023-08-20T06:04:10.587Z,20.52
2023-08-20T06:07:12.167Z,20.63
2023-08-20T06:10:13.763Z,20.92
2023-08-20T06:13:15.395Z,21.23
2023-08-20T06:16:16.924Z,21.34
2023-08-20T06:19:18.618Z,21.50
2023-08-20T06:22:20.164Z,21.77
2023-08-20T06:25:21.706Z,21.75
2023-08-20T06:28:23.231Z,21.28
2023-08-20T06:31:24.831Z,21.03
2023-08-20T06:34:26.352Z,21.25
2023-08-20T06:37:27.904Z,21.92
2023-08-20T06:40:29.596Z,22.47
2023-08-20T06:43:31.144Z,23.00
2023-08-20T06:46:32.725Z,23.40
2023-08-20T06:49:34.255Z,23.68
2023-08-20T06:52:35.853Z,23.91
2023-08-20T06:55:37.610Z,24.16
2023-08-20T06:58:40.800Z,24.30
2023-08-20T07:01:42.478Z,24.40
2023-08-20T07:04:44.033Z,24.53
2023-08-20T07:07:46.622Z,24.63
2023-08-20T07:10:48.197Z,24.70
2023-08-20T07:13:49.729Z,24.87
2023-08-20T07:16:51.258Z,25.18
2023-08-20T07:19:52.835Z,25.29
2023-08-20T07:22:54.791Z,25.30
2023-08-20T07:26:13.057Z,25.48
2023-08-20T07:29:14.575Z,25.63
2023-08-20T07:32:16.113Z,25.84
2023-08-20T07:35:17.676Z,25.92
2023-08-20T07:38:19.219Z,26.09
2023-08-20T07:41:21.475Z,26.25
2023-08-20T07:44:23.046Z,26.11
2023-08-20T07:47:24.623Z,26.19
2023-08-20T07:50:26.156Z,26.35
2023-08-20T07:53:27.718Z,26.40
2023-08-20T07:56:30.299Z,26.64
2023-08-20T07:59:31.835Z,26.69
2023-08-20T08:02:33.359Z,26.63
2023-08-20T08:05:34.888Z,26.92
2023-08-20T08:08:36.455Z,27.04
2023-08-20T08:11:37.980Z,27.07
2023-08-20T08:14:39.511Z,27.38
2023-08-20T08:17:41.102Z,27.50
2023-08-20T08:20:43.029Z,27.55
2023-08-20T08:23:44.535Z,27.57
2023-08-20T08:26:46.093Z,27.70
2023-08-20T08:29:47.612Z,28.02
2023-08-20T08:32:49.451Z,28.02
2023-08-20T08:35:51.044Z,27.92
2023-08-20T08:38:53.605Z,28.11
2023-08-20T08:42:01.748Z,28.18
2023-08-20T08:45:04.216Z,28.22
2023-08-20T08:48:06.293Z,28.19
2023-08-20T08:51:07.911Z,28.27
2023-08-20T08:54:10.166Z,28.35
2023-08-20T08:57:12.243Z,28.57
2023-08-20T09:00:14.408Z,28.49
2023-08-20T09:03:16.182Z,28.33
2023-08-20T09:06:17.731Z,28.11
2023-08-20T09:09:20.929Z,28.25
2023-08-20T09:12:22.486Z,28.45
2023-08-20T09:15:33.057Z,28.54
2023-08-20T09:18:42.491Z,28.43
2023-08-20T09:21:48.041Z,28.50
2023-08-20T09:24:57.181Z,28.93
2023-08-20T09:27:58.809Z,29.17
2023-08-20T09:31:04.039Z,29.12
2023-08-20T09:34:05.841Z,28.82
2023-08-20T09:37:11.710Z,28.70
2023-08-20T09:40:13.356Z,28.67
2023-08-20T09:43:16.854Z,28.84
2023-08-20T09:46:20.533Z,28.88
2023-08-20T09:49:24.106Z,29.13
2023-08-20T09:52:29.184Z,29.37
2023-08-20T09:55:35.642Z,29.52
2023-08-20T09:58:39.299Z,29.54
2023-08-20T10:01:41.869Z,29.62
2023-08-20T10:04:44.767Z,29.96
2023-08-20T10:07:46.918Z,30.18
2023-08-20T10:10:48.455Z,30.10
2023-08-20T10:13:50.365Z,30.10
2023-08-20T10:16:54.018Z,30.17
2023-08-20T10:19:58.705Z,30.46
2023-08-20T10:23:04.544Z,30.29
2023-08-20T10:26:12.441Z,30.36
2023-08-20T10:29:39.759Z,30.20
2023-08-20T10:32:45.037Z,30.07
2023-08-20T10:35:46.755Z,29.64
2023-08-20T10:38:48.558Z,29.98
2023-08-20T10:42:20.630Z,30.17
2023-08-20T10:45:22.326Z,30.05
2023-08-20T10:48:25.412Z,30.16
2023-08-20T10:51:33.081Z,30.45
2023-08-20T10:54:35.492Z,30.95
2023-08-20T10:57:37.737Z,31.00
2023-08-20T11:00:39.618Z,31.24
2023-08-20T11:03:42.625Z,31.23
2023-08-20T11:06:45.197Z,31.27
2023-08-20T11:09:48.179Z,31.13
2023-08-20T11:12:49.708Z,31.30
2023-08-20T11:15:51.291Z,31.65
2023-08-20T11:18:54.549Z,32.00
2023-08-20T11:21:56.165Z,32.18
2023-08-20T11:24:57.701Z,32.30
2023-08-20T11:27:59.253Z,32.58
2023-08-20T11:31:02.388Z,32.28
2023-08-20T11:34:04.836Z,32.59
2023-08-20T11:37:07.216Z,32.74
2023-08-20T11:40:09.346Z,33.06
2023-08-20T11:43:11.100Z,33.12
2023-08-20T11:46:17.205Z,33.02
2023-08-20T11:49:27.839Z,33.08
2023-08-20T11:52:33.340Z,34.72
2023-08-20T11:55:36.160Z,37.54
2023-08-20T11:58:37.698Z,39.72
2023-08-20T12:01:39.585Z,40.86
2023-08-20T12:04:43.029Z,41.35
2023-08-20T12:07:59.516Z,42.88
2023-08-20T12:11:03.178Z,43.45
2023-08-20T12:14:04.896Z,43.30
2023-08-20T12:17:07.656Z,42.77
2023-08-20T12:20:14.711Z,41.79
2023-08-20T12:23:17.679Z,43.95
2023-08-20T12:26:19.915Z,44.85
2023-08-20T12:29:23.311Z,45.73
2023-08-20T12:32:25.516Z,45.08
2023-08-20T12:35:27.200Z,46.13
2023-08-20T12:38:34.671Z,46.81
2023-08-20T12:41:39.905Z,45.42
2023-08-20T12:44:41.474Z,44.26
2023-08-20T12:47:43.104Z,44.37
2023-08-20T12:50:44.570Z,43.87
2023-08-20T12:53:46.511Z,45.13
2023-08-20T12:56:48.167Z,45.66
2023-08-20T12:59:49.827Z,44.76
2023-08-20T13:02:52.418Z,44.08
2023-08-20T13:05:54.347Z,44.80
2023-08-20T13:08:56.203Z,47.02
2023-08-20T13:11:59.737Z,48.13
2023-08-20T13:15:02.947Z,46.56
2023-08-20T13:18:05.376Z,46.89
2023-08-20T13:21:07.087Z,48.18
2023-08-20T13:24:09.965Z,49.12
2023-08-20T13:27:11.512Z,49.42
2023-08-20T13:30:14.194Z,48.92
2023-08-20T13:33:15.822Z,46.80
2023-08-20T13:36:17.512Z,47.39
2023-08-20T13:39:19.689Z,48.92
2023-08-20T13:42:22.776Z,48.21
2023-08-20T13:45:24.839Z,50.17
2023-08-20T13:48:26.505Z,50.13
2023-08-20T13:51:28.191Z,48.35
2023-08-20T13:54:29.712Z,49.96
2023-08-20T13:57:31.266Z,50.92
2023-08-20T14:00:32.930Z,48.27
2023-08-20T14:03:34.493Z,47.42
2023-08-20T14:06:36.140Z,48.80
2023-08-20T14:09:37.799Z,50.98
2023-08-20T14:12:41.005Z,50.53
2023-08-20T14:15:43.207Z,46.99
2023-08-20T14:18:44.944Z,42.39
2023-08-20T14:21:47.102Z,43.64
2023-08-20T14:24:48.756Z,44.36
2023-08-20T14:27:50.313Z,46.50
2023-08-20T14:30:57.628Z,47.29
2023-08-20T14:33:59.265Z,48.26
2023-08-20T14:37:00.816Z,49.66
2023-08-20T14:40:02.988Z,50.20
2023-08-20T14:43:04.857Z,50.17
2023-08-20T14:46:06.424Z,50.48
2023-08-20T14:49:08.068Z,50.95
2023-08-20T14:52:19.818Z,48.84
2023-08-20T14:55:22.658Z,49.12
2023-08-20T14:58:24.311Z,48.48
2023-08-20T15:01:25.980Z,48.52
2023-08-20T15:04:27.523Z,49.48
2023-08-20T15:07:29.077Z,49.50
2023-08-20T15:10:30.627Z,48.20
2023-08-20T15:13:32.925Z,46.99
2023-08-20T15:16:34.596Z,47.04
2023-08-20T15:19:36.404Z,47.79
2023-08-20T15:22:38.703Z,47.61
2023-08-20T15:25:41.028Z,48.35
2023-08-20T15:28:42.616Z,48.59
2023-08-20T15:31:44.257Z,48.06
2023-08-20T15:34:45.842Z,48.49
2023-08-20T15:37:47.484Z,47.13
2023-08-20T15:40:49.108Z,46.14
2023-08-20T15:43:50.663Z,46.46
2023-08-20T15:46:52.235Z,47.03
2023-08-20T15:49:53.983Z,47.32
2023-08-20T15:52:55.546Z,46.06
2023-08-20T15:55:57.100Z,44.97
2023-08-20T15:58:58.607Z,42.49
2023-08-20T16:02:00.306Z,40.08
2023-08-20T16:05:01.834Z,38.35
2023-08-20T16:08:03.468Z,37.12
2023-08-20T16:11:04.992Z,36.04
2023-08-20T16:14:06.642Z,35.31
2023-08-20T16:17:08.194Z,34.73
2023-08-20T16:20:10.459Z,34.30
2023-08-20T16:23:12.194Z,33.94
2023-08-20T16:26:13.911Z,33.73
2023-08-20T16:29:15.420Z,33.46
2023-08-20T16:32:17.096Z,33.20
2023-08-20T16:35:18.881Z,33.10
2023-08-20T16:38:20.802Z,33.04
2023-08-20T16:41:22.521Z,32.96
2023-08-20T16:44:24.200Z,32.76
2023-08-20T16:47:25.963Z,32.64
2023-08-20T16:50:27.627Z,32.40
2023-08-20T16:53:29.245Z,32.18
2023-08-20T16:56:31.110Z,32.07
2023-08-20T16:59:33.149Z,31.91
2023-08-20T17:02:36.412Z,31.73
2023-08-20T17:05:38.014Z,31.55
2023-08-20T17:08:39.674Z,31.44
2023-08-20T17:11:41.219Z,31.35
2023-08-20T17:14:43.389Z,31.13
2023-08-20T17:17:45.815Z,31.00
2023-08-20T17:20:47.403Z,30.86
2023-08-20T17:23:48.965Z,30.74
2023-08-20T17:26:50.522Z,30.50
2023-08-20T17:29:52.092Z,30.40
2023-08-20T17:32:53.771Z,30.11
2023-08-20T17:35:56.519Z,29.95
2023-08-20T17:38:59.638Z,29.82
2023-08-20T17:42:02.854Z,29.74
2023-08-20T17:45:04.834Z,29.41
2023-08-20T17:48:06.929Z,29.14
2023-08-20T17:51:08.618Z,28.91
2023-08-20T17:54:10.385Z,28.71
2023-08-20T17:57:11.925Z,28.56
2023-08-20T18:00:13.892Z,28.41
2023-08-20T18:03:15.718Z,28.31
2023-08-20T18:06:17.669Z,28.10
2023-08-20T18:09:19.817Z,27.85
2023-08-20T18:12:21.453Z,27.61
2023-08-20T18:15:23.012Z,27.39
2023-08-20T18:18:24.637Z,27.15
2023-08-20T18:21:26.263Z,26.98
2023-08-20T18:24:27.839Z,26.86
2023-08-20T18:27:29.735Z,26.69
2023-08-20T18:30:31.393Z,26.50
2023-08-20T18:33:33.533Z,26.35
2023-08-20T18:36:35.160Z,26.18
2023-08-20T18:39:36.763Z,26.09
2023-08-20T18:42:39.282Z,25.95
2023-08-20T18:45:41.302Z,25.84
2023-08-20T18:48:42.904Z,25.75
2023-08-20T18:51:44.495Z,25.60
2023-08-20T18:54:46.087Z,25.47
2023-08-20T18:57:47.601Z,25.35
2023-08-20T19:00:49.798Z,25.22
2023-08-20T19:03:52.144Z,25.17
2023-08-20T19:06:53.758Z,25.08
2023-08-20T19:09:56.453Z,24.98
2023-08-20T19:12:58.345Z,24.82
2023-08-20T19:16:00.025Z,24.73
2023-08-20T19:19:01.680Z,24.68
2023-08-20T19:22:03.224Z,24.56
2023-08-20T19:25:05.225Z,24.41
2023-08-20T19:28:10.456Z,24.34
2023-08-20T19:31:13.245Z,24.31
2023-08-20T19:34:14.885Z,24.14
2023-08-20T19:37:16.441Z,24.11
2023-08-20T19:40:18.012Z,24.08
2023-08-20T19:43:19.656Z,24.02
2023-08-20T19:46:21.218Z,24.00
2023-08-20T19:49:22.837Z,23.95
2023-08-20T19:52:25.033Z,23.88
2023-08-20T19:55:26.951Z,23.86
2023-08-20T19:58:28.554Z,23.81
2023-08-20T20:01:30.564Z,23.78
2023-08-20T20:04:32.271Z,23.70
2023-08-20T20:07:33.978Z,23.61
2023-08-20T20:10:35.968Z,23.52
2023-08-20T20:13:37.703Z,23.51
2023-08-20T20:16:39.311Z,23.47
2023-08-20T20:19:41.908Z,23.39
2023-08-20T20:22:46.313Z,23.31
2023-08-20T20:25:47.856Z,23.29
2023-08-20T20:28:49.512Z,23.25
2023-08-20T20:31:51.208Z,23.16
2023-08-20T20:34:53.199Z,23.09
2023-08-20T20:37:54.834Z,23.06
2023-08-20T20:40:56.426Z,22.99
2023-08-20T20:43:58.072Z,22.81
2023-08-20T20:46:59.631Z,22.75
2023-08-20T20:50:02.124Z,22.71
2023-08-20T20:53:04.619Z,22.64
2023-08-20T20:56:06.270Z,22.56
2023-08-20T20:59:08.063Z,22.51
2023-08-20T21:02:09.793Z,22.52
2023-08-20T21:05:11.799Z,22.47
2023-08-20T21:08:13.323Z,22.41
2023-08-20T21:11:14.974Z,22.39
2023-08-20T21:14:16.603Z,22.37
2023-08-20T21:17:18.398Z,22.52
2023-08-20T21:20:20.027Z,22.58
2023-08-20T21:23:22.002Z,22.42
2023-08-20T21:26:24.992Z,22.33
2023-08-20T21:29:26.531Z,22.24
2023-08-20T21:32:28.307Z,22.17
2023-08-20T21:35:30.653Z,22.13
2023-08-20T21:38:33.331Z,22.16
2023-08-20T21:41:35.605Z,22.13
2023-08-20T21:44:37.273Z,22.11
2023-08-20T21:47:40.353Z,22.07
2023-08-20T21:50:42.024Z,21.98
2023-08-20T21:53:44.622Z,21.88
2023-08-20T21:56:54.423Z,21.82
2023-08-20T21:59:57.030Z,21.80
2023-08-20T22:02:59.693Z,21.78
2023-08-20T22:06:02.284Z,21.75
2023-08-20T22:09:04.193Z,21.68
2023-08-20T22:12:06.034Z,21.61
2023-08-20T22:15:08.499Z,21.55
2023-08-20T22:18:10.297Z,21.55
2023-08-20T22:21:12.087Z,21.54
2023-08-20T22:24:21.442Z,21.50
2023-08-20T22:27:23.244Z,21.44
2023-08-20T22:30:25.067Z,21.39
2023-08-20T22:33:26.847Z,21.34
2023-08-20T22:36:28.459Z,21.27
2023-08-20T22:39:30.450Z,21.22
2023-08-20T22:42:32.034Z,21.22
2023-08-20T22:45:34.094Z,21.21
2023-08-20T22:48:36.055Z,21.17
2023-08-20T22:51:37.858Z,21.12
2023-08-20T22:54:40.654Z,21.10
2023-08-20T22:57:42.469Z,21.02
2023-08-20T23:00:44.267Z,20.95
2023-08-20T23:03:46.027Z,20.94
2023-08-20T23:06:48.071Z,20.90
2023-08-20T23:09:49.854Z,20.83
2023-08-20T23:12:51.689Z,20.83
2023-08-20T23:15:54.474Z,20.79
2023-08-20T23:18:56.177Z,20.75
2023-08-20T23:21:58.276Z,20.74
2023-08-20T23:25:00.124Z,20.72
2023-08-20T23:28:01.720Z,20.68
2023-08-20T23:31:07.247Z,20.64
2023-08-20T23:34:09.084Z,20.61
2023-08-20T23:37:11.325Z,20.55
2023-08-20T23:40:13.208Z,20.54
2023-08-20T23:43:15.258Z,20.51
2023-08-20T23:46:17.536Z,20.45
2023-08-20T23:49:19.293Z,20.44
2023-08-20T23:52:21.094Z,20.42
2023-08-20T23:55:22.896Z,20.42
2023-08-20T23:58:24.898Z,20.37
